Aérodrome :







RETROUVEZ-NOUS SUR...

 
LOGIN :

S'inscrire | Disclaimer

   EN    FR    IT 

 









Légende :    VFR   VFR Marginal   IFR   IFR Intensif   IFR Très Intensif
Visi : 
Plafond : 
>= 8 km
>= 3000ft
5 à 8 km
1000 à 3000 ft
1500m à 5 km
500 à 1000 ft
800 à 1500m
200 à 500 ft
< 800m
< 200 ft
Symboles :   Orages  Brouillard  Fortes neiges  Fortes précipitations  Vent > 20 kt






- Altitude de l'aérodrome : 1040 ft


KAFN - Jaffrey Silver Ranch

DERNIER METAR :
  • 070152Z AUTO 00000KT 10SM FEW010 BKN020 OVC025 M02/M03 A2995 RMK AO2 SLP163 T10221033

METARs EXPIRÉS :
  • 070135Z AUTO 00000KT 10SM SCT006 OVC017 M02/M03 A2994 RMK AO2 T10171033
  • 070052Z AUTO 00000KT 7SM OVC007 M02/M04 A2991 RMK AO2 CIG 005V011 SLP149 T10171039
  • 070038Z AUTO 00000KT 6SM BR BKN009 OVC013 M02/M03 A2990 RMK AO2 T10171033
  • 070031Z AUTO 00000KT 7SM SCT009 OVC013 M02/M03 A2990 RMK AO2 T10171033
  • 070001Z AUTO 00000KT 6SM BR FEW008 OVC016 M02/M03 A2989 RMK AO2 T10171033
  • 062352Z AUTO 00000KT 6SM BR OVC018 M02/M03 A2988 RMK AO2 SNE28 SLP139 P0000 60008 T10221033 11017 21022 53002

TAF N/A



MET'MAP, la Météo Aéronautique d'un coup d'oeil ! - Copyright ORBIFLY Décembre 2007 - Disclaimer

ORBIFLY MET'MAP TEAM :

Programmation & Développement : Alexandra Zaïnal
Sur une idée originale de : Baudouin d'Aumeries
Assistance à la programmation : Marc-Olivier Méhu
Soutien technique & logistique : Manuel Goepfert

Contact : metmap@orbifly.com




SOURCES & CREDITS :

   NOAA